createdAt,value
2023-03-23T16:00:28.079Z,0.20
2023-03-23T16:05:29.708Z,0.43
2023-03-23T16:10:31.026Z,0.55
2023-03-23T16:15:32.558Z,0.30
2023-03-23T16:20:36.253Z,0.77
2023-03-23T16:25:40.212Z,0.13
2023-03-23T16:30:43.313Z,0.20
2023-03-23T16:35:45.030Z,0.20
2023-03-23T16:40:47.182Z,0.20
2023-03-23T16:45:49.255Z,0.50
2023-03-23T16:50:51.945Z,0.30
2023-03-23T16:55:53.414Z,0.40
2023-03-23T17:01:01.033Z,0.30
2023-03-23T17:06:02.586Z,0.30
2023-03-23T17:11:04.080Z,0.40
2023-03-23T17:16:06.116Z,0.30
2023-03-23T17:21:07.621Z,0.35
2023-03-23T17:26:08.958Z,0.52
2023-03-23T17:31:10.520Z,0.65
2023-03-23T17:36:11.949Z,0.60
2023-03-23T17:41:13.350Z,0.60
2023-03-23T17:46:15.331Z,0.40
2023-03-23T17:51:16.669Z,0.50
2023-03-23T17:56:18.110Z,0.50
2023-03-23T18:01:19.531Z,0.40
2023-03-23T18:06:25.859Z,0.40
2023-03-23T18:11:31.576Z,0.52
2023-03-23T18:16:37.662Z,0.40
2023-03-23T18:22:04.467Z,0.75
2023-03-23T18:27:05.823Z,0.50
2023-03-23T18:32:08.089Z,0.40
2023-03-23T18:37:10.818Z,0.52
2023-03-23T18:42:12.147Z,0.50
2023-03-23T18:47:13.511Z,0.45
2023-03-23T18:52:14.858Z,0.68
2023-03-23T18:57:17.888Z,0.63
2023-03-23T19:02:20.376Z,1.08
2023-03-23T19:07:21.762Z,1.00
2023-03-23T19:12:38.060Z,0.60
2023-03-23T19:17:39.546Z,0.50
2023-03-23T19:22:41.191Z,0.60
2023-03-23T19:28:14.693Z,0.68
2023-03-23T19:33:04.711Z,0.60
2023-03-23T19:38:06.899Z,0.40
2023-03-23T19:43:08.418Z,0.63
2023-03-23T19:48:10.203Z,0.45
2023-03-23T19:53:14.026Z,0.60
2023-03-23T19:58:16.309Z,0.40
2023-03-23T20:03:18.350Z,0.73
2023-03-23T20:08:19.725Z,0.88
2023-03-23T20:13:21.066Z,0.50
2023-03-23T20:18:22.624Z,0.60
2023-03-23T20:23:25.185Z,0.55
2023-03-23T20:28:26.776Z,0.50
2023-03-23T20:33:30.352Z,0.70
2023-03-23T20:38:35.214Z,0.70
2023-03-23T20:43:37.663Z,0.70
2023-03-23T20:48:40.127Z,0.60
2023-03-23T20:53:41.619Z,0.50
2023-03-23T20:58:43.450Z,0.70
2023-03-23T21:03:45.494Z,0.50
2023-03-23T21:08:47.029Z,0.68
2023-03-23T21:13:49.182Z,0.60
2023-03-23T21:18:51.167Z,0.80
2023-03-23T21:23:53.820Z,0.60
2023-03-23T21:29:00.897Z,0.60
2023-03-23T21:39:05.967Z,0.50
2023-03-23T21:44:10.572Z,0.60
2023-03-23T21:49:19.065Z,0.70
2023-03-23T21:54:21.571Z,1.13
2023-03-23T21:59:23.826Z,0.70
2023-03-23T22:04:25.351Z,0.73
2023-03-23T22:09:26.689Z,0.90
2023-03-23T22:14:28.499Z,0.93
2023-03-23T22:19:29.853Z,1.02
2023-03-23T22:24:31.925Z,0.85
2023-03-23T22:29:34.943Z,1.25
2023-03-23T22:34:37.758Z,1.30
2023-03-23T22:39:39.305Z,1.10
2023-03-23T22:44:50.573Z,1.52
2023-03-23T22:49:53.096Z,1.30
2023-03-23T22:54:54.584Z,1.15
2023-03-23T22:59:56.789Z,1.70
2023-03-23T23:04:59.086Z,1.90
2023-03-23T23:10:00.619Z,1.70
2023-03-23T23:15:06.730Z,1.95
2023-03-23T23:20:12.841Z,2.58
2023-03-23T23:25:16.217Z,2.50
2023-03-23T23:30:18.643Z,2.92
2023-03-23T23:35:21.236Z,3.60
2023-03-23T23:40:22.953Z,3.47
2023-03-23T23:45:24.396Z,4.18
2023-03-23T23:50:26.434Z,3.95
2023-03-23T23:55:27.841Z,3.33
